Time;durP1;ratioP1;P1;durP2;ratioP2;P2;SDS_P1;SDS_P2;PMS_P1;PMS_P2;Temp;Humidity;BMP_temperature;BMP_pressure;BME280_temperature;BME280_humidity;BME280_pressure;Samples;Min_cycle;Max_cycle;Signal;HPM_P1;HPM_P2
2023/03/15 00:00:06;;;;;;;;;6.25;5.00;;;;;8.23;100.00;101401.31;5009965;28;46735;-77
2023/03/15 00:02:32;;;;;;;;;4.25;4.25;;;;;8.23;100.00;101393.44;4991568;28;45867;-77
2023/03/15 00:04:57;;;;;;;;;6.75;5.75;;;;;8.24;100.00;101397.84;5000677;28;45648;-77
2023/03/15 00:07:24;;;;;;;;;6.00;5.00;;;;;8.27;100.00;101399.69;5006504;28;52601;-78
2023/03/15 00:09:50;;;;;;;;;6.00;5.00;;;;;8.27;100.00;101395.31;5006108;28;45537;-77
2023/03/15 00:12:16;;;;;;;;;11.75;6.00;;;;;8.27;100.00;101392.69;5015862;28;47423;-77
2023/03/15 00:14:41;;;;;;;;;7.00;5.00;;;;;8.28;100.00;101396.19;5016232;28;48985;-76
2023/03/15 00:17:07;;;;;;;;;6.25;4.50;;;;;8.25;100.00;101389.09;5009521;28;45285;-76
2023/03/15 00:19:32;;;;;;;;;6.00;3.50;;;;;8.29;100.00;101395.34;5016820;28;45321;-78
2023/03/15 00:21:57;;;;;;;;;5.25;5.25;;;;;8.32;100.00;101388.44;5016006;28;45388;-76
2023/03/15 00:24:23;;;;;;;;;5.00;5.00;;;;;8.33;100.00;101390.22;5011942;28;59795;-77
2023/03/15 00:26:48;;;;;;;;;6.00;6.00;;;;;8.32;100.00;101387.56;5016744;28;45605;-77
2023/03/15 00:29:13;;;;;;;;;9.75;5.00;;;;;8.30;100.00;101395.38;5149140;22;45518;-76
2023/03/15 00:31:39;;;;;;;;;7.00;5.75;;;;;8.26;100.00;101400.53;5074245;27;46470;-77
2023/03/15 00:34:04;;;;;;;;;5.00;5.00;;;;;8.22;100.00;101396.91;5076761;28;45493;-77
2023/03/15 00:36:31;;;;;;;;;6.00;6.00;;;;;8.20;100.00;101397.69;5073138;27;61507;-77
2023/03/15 00:38:56;;;;;;;;;8.00;5.00;;;;;8.16;100.00;101399.38;5077332;28;45549;-77
2023/03/15 00:41:22;;;;;;;;;6.00;5.00;;;;;8.13;100.00;101394.88;5076471;28;46615;-77
2023/03/15 00:43:48;;;;;;;;;5.50;5.50;;;;;8.13;100.00;101408.03;5074744;28;45690;-77
2023/03/15 00:46:13;;;;;;;;;2.75;1.00;;;;;8.11;100.00;101400.97;5041130;28;45515;-77
2023/03/15 00:48:39;;;;;;;;;3.00;3.00;;;;;8.11;100.00;101404.47;5076218;28;45207;-77
2023/03/15 00:51:09;;;;;;;;;3.50;2.75;;;;;8.14;100.00;101409.81;5069791;27;46495;-77
2023/03/15 00:53:36;;;;;;;;;4.00;2.25;;;;;8.14;100.00;101411.56;5073682;28;45388;-77
2023/03/15 00:56:10;;;;;;;;;5.75;3.00;;;;;8.19;100.00;101411.69;5071625;28;45477;-77
2023/03/15 00:58:36;;;;;;;;;2.00;2.00;;;;;8.21;100.00;101405.66;5052983;28;45504;-77
2023/03/15 01:01:06;;;;;;;;;5.00;3.00;;;;;8.23;100.00;101413.59;5070822;27;46490;-76
2023/03/15 01:03:32;;;;;;;;;4.00;3.00;;;;;8.23;100.00;101409.22;5071241;28;45361;-76
2023/03/15 01:05:57;;;;;;;;;6.00;2.75;;;;;8.23;100.00;101413.59;5077233;28;45460;-76
2023/03/15 01:08:23;;;;;;;;;3.00;3.00;;;;;8.23;100.00;101414.47;5075970;27;45423;-76
2023/03/15 01:10:48;;;;;;;;;6.75;2.75;;;;;8.22;100.00;101406.53;5073616;27;46179;-77
2023/03/15 01:13:14;;;;;;;;;6.50;2.75;;;;;8.20;100.00;101417.00;5075468;28;45421;-77
2023/03/15 01:15:39;;;;;;;;;3.00;3.00;;;;;8.20;100.00;101416.09;5072847;27;62195;-77
2023/03/15 01:18:04;;;;;;;;;4.00;2.75;;;;;8.18;100.00;101417.81;5075129;28;45604;-76
2023/03/15 01:20:30;;;;;;;;;3.50;3.00;;;;;8.16;100.00;101422.16;5070902;27;48959;-77
2023/03/15 01:22:55;;;;;;;;;5.00;3.00;;;;;8.15;100.00;101423.88;5075271;27;45501;-77
2023/03/15 01:25:21;;;;;;;;;3.00;3.00;;;;;8.14;100.00;101422.97;5076174;28;45696;-77
2023/03/15 01:27:46;;;;;;;;;3.00;3.00;;;;;8.14;100.00;101417.72;5076356;28;45573;-76
2023/03/15 01:30:12;;;;;;;;;2.75;2.00;;;;;8.14;100.00;101422.97;5075195;28;60684;-77
2023/03/15 01:32:37;;;;;;;;;4.25;3.00;;;;;8.15;100.00;101416.00;5073128;28;45394;-76
2023/03/15 01:35:02;;;;;;;;;2.00;2.00;;;;;8.15;100.00;101423.88;5056858;28;52986;-77
2023/03/15 01:37:28;;;;;;;;;6.00;2.00;;;;;8.13;100.00;101425.56;5075075;28;45649;-77
2023/03/15 01:39:54;;;;;;;;;6.00;3.00;;;;;8.11;100.00;101425.53;5073829;28;46444;-77
2023/03/15 01:42:19;;;;;;;;;3.00;3.00;;;;;8.08;100.00;101425.41;5076480;27;45385;-75
2023/03/15 01:44:54;;;;;;;;;6.00;4.00;;;;;8.08;100.00;101430.69;5067818;28;45371;-77
2023/03/15 01:47:20;;;;;;;;;2.50;0.00;;;;;8.06;100.00;101428.84;5072358;28;45515;-76
2023/03/15 01:49:49;;;;;;;;;6.75;3.00;;;;;8.06;100.00;101427.13;5075144;28;47548;-77
2023/03/15 01:52:17;;;;;;;;;3.75;3.50;;;;;8.07;100.00;101428.00;5072393;27;45506;-77
2023/03/15 01:54:48;;;;;;;;;5.00;4.50;;;;;8.05;100.00;101425.34;5057359;28;45426;-76
2023/03/15 01:57:23;;;;;;;;;4.50;4.50;;;;;8.06;100.00;101426.22;5070532;28;45506;-76
2023/03/15 02:00:06;;;;;;;;;4.50;2.75;;;;;8.05;100.00;101429.72;5075924;28;47572;-77
2023/03/15 02:02:32;;;;;;;;;2.00;2.00;;;;;8.04;100.00;101434.09;5076241;28;45363;-76
2023/03/15 02:05:04;;;;;;;;;2.00;2.00;;;;;8.04;100.00;101436.72;5075870;28;45714;-76
2023/03/15 02:07:33;;;;;;;;;2.00;2.00;;;;;8.02;100.00;101435.75;5070599;28;45214;-76
2023/03/15 02:10:06;;;;;;;;;2.25;2.00;;;;;8.01;100.00;101438.34;5066566;27;46584;-77
2023/03/15 02:12:35;;;;;;;;;2.00;2.00;;;;;7.96;100.00;101430.31;5053532;28;45430;-77
2023/03/15 02:15:03;;;;;;;;;3.50;2.50;;;;;7.93;100.00;101427.56;5064567;28;45319;-76
2023/03/15 02:17:41;;;;;;;;;2.75;2.75;;;;;7.91;100.00;101420.50;5073113;28;45481;-76
2023/03/15 02:20:38;;;;;;;;;2.25;1.75;;;;;7.88;100.00;101434.41;5062786;27;48304;-77
2023/03/15 02:23:10;;;;;;;;;2.00;2.00;;;;;7.83;100.00;101428.16;5071163;28;45449;-77
2023/03/15 02:26:06;;;;;;;;;3.75;2.00;;;;;7.81;100.00;101432.44;5074324;28;45511;-76
2023/03/15 02:28:32;;;;;;;;;5.00;2.00;;;;;7.76;100.00;101431.41;5054248;28;45505;-76
2023/03/15 02:30:58;;;;;;;;;2.00;2.00;;;;;7.76;100.00;101429.66;5073611;27;56558;-77
2023/03/15 02:33:29;;;;;;;;;2.50;2.25;;;;;7.77;100.00;101427.94;5073163;28;45438;-77
2023/03/15 02:36:06;;;;;;;;;2.00;2.00;;;;;7.73;100.00;101423.44;5073206;28;45448;-76
2023/03/15 02:38:31;;;;;;;;;5.00;2.00;;;;;7.71;100.00;101433.88;5052975;28;45507;-77
2023/03/15 02:40:57;;;;;;;;;2.00;2.00;;;;;7.67;100.00;101423.22;5070553;28;63043;-78
2023/03/15 02:43:27;;;;;;;;;2.00;2.00;;;;;7.63;100.00;101424.88;5053527;28;58699;-77
2023/03/15 02:45:53;;;;;;;;;2.50;2.00;;;;;7.60;100.00;101428.28;5067699;28;45504;-76
2023/03/15 02:48:19;;;;;;;;;2.00;2.00;;;;;7.55;100.00;101421.09;5066532;28;54830;-77
2023/03/15 02:50:44;;;;;;;;;3.00;2.00;;;;;7.54;100.00;101428.09;5067864;27;47063;-77
2023/03/15 02:53:11;;;;;;;;;4.00;2.50;;;;;7.49;100.00;101416.53;5049135;28;45313;-76
2023/03/15 02:55:36;;;;;;;;;2.00;2.00;;;;;7.47;100.00;101428.75;5073730;28;45450;-77
2023/03/15 02:58:02;;;;;;;;;2.00;2.00;;;;;7.44;100.00;101426.00;5075667;28;45470;-77
2023/03/15 03:00:27;;;;;;;;;2.00;2.00;;;;;7.44;100.00;101441.75;5062608;28;47577;-77
2023/03/15 03:02:53;;;;;;;;;3.00;1.75;;;;;7.41;100.00;101432.91;5068032;28;45418;-77
2023/03/15 03:05:19;;;;;;;;;3.00;3.00;;;;;7.40;100.00;101428.47;5056743;28;47127;-78
2023/03/15 03:07:45;;;;;;;;;3.75;2.25;;;;;7.38;100.00;101438.94;5074119;28;61241;-77
2023/03/15 03:10:13;;;;;;;;;6.00;3.00;;;;;7.35;100.00;101438.84;5055724;28;46520;-78
2023/03/15 03:12:38;;;;;;;;;2.75;2.00;;;;;7.32;100.00;101442.25;5073384;28;45403;-77
2023/03/15 03:15:04;;;;;;;;;7.00;2.25;;;;;7.32;100.00;101454.50;5070159;28;45425;-76
2023/03/15 03:17:30;;;;;;;;;5.75;4.50;;;;;7.29;100.00;101450.00;5069641;28;45433;-77
2023/03/15 03:19:55;;;;;;;;;3.00;2.25;;;;;7.29;100.00;101457.88;5069120;28;47730;-76
2023/03/15 03:22:23;;;;;;;;;3.00;3.00;;;;;7.26;100.00;101457.81;5052970;28;45455;-76
2023/03/15 03:24:49;;;;;;;;;2.00;2.00;;;;;7.29;100.00;101459.63;5051891;28;45522;-76
2023/03/15 03:27:15;;;;;;;;;2.75;2.75;;;;;7.29;100.00;101464.88;5074994;27;45585;-76
2023/03/15 03:29:41;;;;;;;;;2.25;2.25;;;;;7.29;100.00;101465.78;5075294;28;47622;-76
2023/03/15 03:32:07;;;;;;;;;1.25;1.00;;;;;7.29;100.00;101468.41;5078184;27;45557;-76
2023/03/15 03:34:32;;;;;;;;;1.50;1.50;;;;;7.28;100.00;101455.22;5060095;28;45528;-76
2023/03/15 03:36:58;;;;;;;;;2.50;1.50;;;;;7.27;100.00;101461.31;5057700;28;45432;-77
2023/03/15 03:39:23;;;;;;;;;2.00;2.00;;;;;7.25;100.00;101457.75;5073906;28;50615;-77
2023/03/15 03:41:48;;;;;;;;;4.25;2.75;;;;;7.22;100.00;101463.78;5077877;28;52140;-76
2023/03/15 03:44:14;;;;;;;;;5.00;3.00;;;;;7.18;100.00;101461.88;5075398;27;45289;-77
2023/03/15 03:46:40;;;;;;;;;6.50;2.75;;;;;7.17;100.00;101454.84;5072832;28;45395;-76
2023/03/15 03:49:05;;;;;;;;;2.00;2.00;;;;;7.14;100.00;101451.22;5073189;27;46709;-77
2023/03/15 03:51:32;;;;;;;;;3.00;3.00;;;;;7.08;100.00;101458.06;5056255;28;46266;-76
2023/03/15 03:53:58;;;;;;;;;2.00;2.00;;;;;7.05;100.00;101457.06;5075317;28;45479;-76
2023/03/15 03:56:24;;;;;;;;;2.00;2.00;;;;;7.01;100.00;101455.16;5072540;28;45573;-77
2023/03/15 03:58:49;;;;;;;;;5.00;2.50;;;;;6.97;100.00;101456.78;5076245;28;46390;-77
2023/03/15 04:01:15;;;;;;;;;2.25;2.00;;;;;6.97;100.00;101467.28;5076698;27;45353;-76
2023/03/15 04:03:41;;;;;;;;;2.75;2.75;;;;;6.95;100.00;101468.97;5077052;27;45563;-77
2023/03/15 04:06:06;;;;;;;;;3.50;3.50;;;;;6.95;100.00;101468.06;5074553;28;45458;-76
2023/03/15 04:08:31;;;;;;;;;1.00;1.00;;;;;6.94;100.00;101476.78;5073262;28;46637;-76
2023/03/15 04:10:57;;;;;;;;;5.00;5.00;;;;;6.92;100.00;101486.31;5077702;28;45413;-77
2023/03/15 04:13:23;;;;;;;;;2.25;2.25;;;;;6.87;100.00;101472.13;5077037;28;51081;-77
2023/03/15 04:15:49;;;;;;;;;1.50;1.50;;;;;6.88;100.00;101482.72;5070752;27;45599;-77
2023/03/15 04:18:15;;;;;;;;;1.50;1.25;;;;;6.87;100.00;101477.38;5058553;28;46582;-77
2023/03/15 04:20:45;;;;;;;;;5.00;2.00;;;;;6.82;100.00;101478.13;5076837;27;45421;-78
2023/03/15 04:23:13;;;;;;;;;1.25;1.25;;;;;6.85;100.00;101481.69;5077312;28;45458;-77
2023/03/15 04:25:39;;;;;;;;;2.50;1.25;;;;;6.83;100.00;101479.03;5056630;27;45466;-76
2023/03/15 04:28:04;;;;;;;;;2.50;1.00;;;;;6.82;100.00;101474.63;5076886;28;47456;-76
2023/03/15 04:30:30;;;;;;;;;8.25;4.50;;;;;6.78;100.00;101462.22;5073277;28;45695;-77
2023/03/15 04:33:02;;;;;;;;;3.00;2.00;;;;;6.78;100.00;101470.97;5076613;27;45717;-76
2023/03/15 04:35:34;;;;;;;;;1.75;1.75;;;;;6.80;100.00;101468.41;5076932;28;45345;-77
2023/03/15 04:38:00;;;;;;;;;4.75;1.00;;;;;6.81;100.00;101465.81;5076314;27;46808;-76
2023/03/15 04:40:26;;;;;;;;;3.25;1.50;;;;;6.86;100.00;101466.00;5043711;28;45510;-77
2023/03/15 04:42:55;;;;;;;;;5.00;1.00;;;;;6.91;100.00;101463.53;5075593;28;45351;-75
2023/03/15 04:45:24;;;;;;;;;1.00;1.00;;;;;6.94;100.00;101475.06;5076381;28;45332;-76
2023/03/15 04:47:50;;;;;;;;;3.50;2.00;;;;;6.95;100.00;101474.22;5068880;28;47562;-76
2023/03/15 04:50:15;;;;;;;;;2.00;1.00;;;;;7.01;100.00;101482.31;5074775;28;45492;-77
2023/03/15 04:52:41;;;;;;;;;2.00;2.00;;;;;7.02;100.00;101481.47;5076921;28;45326;-77
2023/03/15 04:55:07;;;;;;;;;1.00;1.00;;;;;7.03;100.00;101477.09;5077021;27;45390;-77
2023/03/15 04:57:32;;;;;;;;;1.00;1.00;;;;;7.06;100.00;101479.84;5065269;28;47747;-77
2023/03/15 04:59:57;;;;;;;;;3.75;1.50;;;;;7.08;100.00;101479.06;5069657;28;46068;-76
2023/03/15 05:02:23;;;;;;;;;1.50;1.00;;;;;7.12;100.00;101484.41;5077057;28;45650;-77
2023/03/15 05:04:48;;;;;;;;;1.00;1.00;;;;;7.12;100.00;101490.56;5075621;27;53423;-77
2023/03/15 05:07:13;;;;;;;;;1.00;1.00;;;;;7.10;100.00;101492.25;5067048;28;58121;-77
2023/03/15 05:09:39;;;;;;;;;3.00;1.00;;;;;7.08;100.00;101500.09;5075562;27;45395;-77
2023/03/15 05:12:05;;;;;;;;;1.00;1.00;;;;;7.06;100.00;101506.09;5075989;28;57499;-77
2023/03/15 05:14:31;;;;;;;;;3.75;1.00;;;;;7.03;100.00;101501.66;5076438;28;45425;-77
2023/03/15 05:16:58;;;;;;;;;1.25;1.25;;;;;6.99;100.00;101505.00;5071547;27;48572;-77
2023/03/15 05:19:27;;;;;;;;;1.75;1.00;;;;;7.01;100.00;101512.91;5075011;28;45426;-77
2023/03/15 05:21:53;;;;;;;;;1.25;1.00;;;;;6.98;100.00;101503.22;5075696;27;45367;-77
2023/03/15 05:24:19;;;;;;;;;3.00;1.00;;;;;6.98;100.00;101505.84;5076377;28;45561;-77
2023/03/15 05:26:45;;;;;;;;;0.75;0.50;;;;;6.95;100.00;101505.72;5067608;28;47389;-77
2023/03/15 05:29:11;;;;;;;;;3.00;1.75;;;;;6.95;100.00;101500.47;5055543;28;45581;-77
2023/03/15 05:31:37;;;;;;;;;1.00;1.00;;;;;6.94;100.00;101506.56;5072598;28;45587;-77
2023/03/15 05:34:03;;;;;;;;;3.00;1.00;;;;;6.92;100.00;101500.34;5075463;28;46108;-77
2023/03/15 05:36:33;;;;;;;;;1.75;1.50;;;;;6.90;100.00;101507.28;5072623;27;46611;-77
2023/03/15 05:38:58;;;;;;;;;1.50;1.00;;;;;6.89;100.00;101509.84;5074955;27;45318;-76
2023/03/15 05:41:24;;;;;;;;;1.50;1.50;;;;;6.87;100.00;101507.19;5074291;28;45760;-76
2023/03/15 05:43:50;;;;;;;;;2.00;2.00;;;;;6.83;100.00;101502.66;5073068;27;45291;-79
2023/03/15 05:46:15;;;;;;;;;3.00;2.00;;;;;6.81;100.00;101502.56;5064496;27;46747;-79
2023/03/15 05:48:41;;;;;;;;;5.25;2.75;;;;;6.82;100.00;101507.00;5070590;28;45533;-78
2023/03/15 05:51:06;;;;;;;;;4.50;2.25;;;;;6.82;100.00;101508.75;5072761;27;45538;-78
2023/03/15 05:53:32;;;;;;;;;4.25;2.50;;;;;6.79;100.00;101512.13;5057664;28;45525;-84
2023/03/15 05:55:57;;;;;;;;;9.00;2.00;;;;;6.77;100.00;101510.31;5053872;28;46833;-84
2023/03/15 05:58:22;;;;;;;;;1.50;1.50;;;;;6.75;100.00;101511.97;5036149;28;47471;-80
2023/03/15 06:00:48;;;;;;;;;2.50;2.00;;;;;6.71;100.00;101513.59;5049020;28;46580;-81
2023/03/15 06:03:15;;;;;;;;;3.25;1.25;;;;;6.70;100.00;101518.75;5068756;28;45607;-84
2023/03/15 06:05:40;;;;;;;;;1.00;1.00;;;;;6.66;100.00;101514.22;5071621;27;46570;-88
2023/03/15 06:08:06;;;;;;;;;2.00;2.00;;;;;6.62;100.00;101521.13;5074759;27;45453;-87
2023/03/15 06:10:32;;;;;;;;;2.00;2.00;;;;;6.58;100.00;101513.94;5039203;28;45520;-83
2023/03/15 06:12:58;;;;;;;;;2.25;2.00;;;;;6.57;100.00;101520.94;5055339;28;45558;-88
2023/03/15 06:15:23;;;;;;;;;5.50;1.75;;;;;6.57;100.00;101523.56;5049610;28;45856;-77
2023/03/15 06:17:49;;;;;;;;;2.00;2.00;;;;;6.56;100.00;101526.13;5054114;28;45490;-76
2023/03/15 06:20:14;;;;;;;;;1.25;1.25;;;;;6.56;100.00;101528.75;5060732;27;45546;-77
2023/03/15 06:22:40;;;;;;;;;7.00;1.75;;;;;6.55;100.00;101529.56;5069103;28;63505;-76
2023/03/15 06:25:06;;;;;;;;;3.50;3.00;;;;;6.53;100.00;101539.13;5072827;27;47274;-77
2023/03/15 06:27:31;;;;;;;;;5.00;2.00;;;;;6.51;100.00;101541.69;5068572;28;45445;-77
2023/03/15 06:29:57;;;;;;;;;4.50;2.75;;;;;6.53;100.00;101544.34;5072695;27;48202;-76
2023/03/15 06:32:22;;;;;;;;;6.50;3.00;;;;;6.53;100.00;101540.00;5070306;28;45342;-79
2023/03/15 06:34:48;;;;;;;;;4.75;4.75;;;;;6.55;100.00;101529.56;5073627;28;45842;-78
2023/03/15 06:37:14;;;;;;;;;9.25;9.25;;;;;6.60;100.00;101553.34;5072822;28;45554;-77
2023/03/15 06:39:40;;;;;;;;;21.00;14.00;;;;;6.63;100.00;101543.88;5070859;27;46595;-76
2023/03/15 06:42:07;;;;;;;;;20.00;17.00;;;;;6.66;100.00;101545.72;5072531;28;62179;-78
2023/03/15 06:44:35;;;;;;;;;18.75;14.00;;;;;6.67;100.00;101540.56;5072633;28;47559;-76
2023/03/15 06:47:00;;;;;;;;;12.50;10.50;;;;;6.69;100.00;101546.75;5070871;28;45517;-76
2023/03/15 06:49:26;;;;;;;;;7.75;4.25;;;;;6.72;100.00;101548.59;5070001;27;65738;-77
2023/03/15 06:51:51;;;;;;;;;7.50;4.50;;;;;6.76;100.00;101546.13;5071483;27;63132;-77
2023/03/15 06:54:17;;;;;;;;;5.25;2.75;;;;;6.80;100.00;101542.78;5068138;28;46370;-76
2023/03/15 06:56:42;;;;;;;;;5.25;5.25;;;;;6.83;100.00;101547.28;5073016;28;45426;-76
2023/03/15 06:59:08;;;;;;;;;6.00;3.00;;;;;6.87;100.00;101548.25;5069876;28;45493;-77
2023/03/15 07:01:33;;;;;;;;;4.50;4.50;;;;;6.89;100.00;101544.88;5073360;27;45375;-76
2023/03/15 07:03:59;;;;;;;;;5.00;2.00;;;;;6.94;100.00;101542.41;5059695;28;45541;-76
2023/03/15 07:06:27;;;;;;;;;2.75;2.75;;;;;7.01;100.00;101553.19;5071557;27;45547;-76
2023/03/15 07:08:52;;;;;;;;;5.50;2.00;;;;;7.06;100.00;101541.13;5073187;27;45934;-78
2023/03/15 07:11:17;;;;;;;;;6.00;2.00;;;;;7.12;100.00;101550.97;5066034;27;45612;-76
2023/03/15 07:13:43;;;;;;;;;5.50;2.50;;;;;7.15;100.00;101547.56;5077698;27;55966;-76
2023/03/15 07:16:08;;;;;;;;;2.00;2.00;;;;;7.22;100.00;101555.72;5070910;27;45454;-78
2023/03/15 07:18:33;;;;;;;;;3.50;3.00;;;;;7.26;100.00;101560.25;5073931;27;66422;-77
2023/03/15 07:21:01;;;;;;;;;2.50;2.50;;;;;7.30;100.00;101556.91;5067417;27;64419;-77
2023/03/15 07:23:26;;;;;;;;;2.00;1.75;;;;;7.37;100.00;101562.38;5077677;27;47783;-77
2023/03/15 07:25:53;;;;;;;;;5.00;2.25;;;;;7.42;100.00;101569.56;5075739;27;45515;-78
2023/03/15 07:28:19;;;;;;;;;1.00;1.00;;;;;7.47;100.00;101567.09;5076394;28;45422;-77
2023/03/15 07:30:55;;;;;;;;;2.75;2.75;;;;;7.54;100.00;101579.63;5073364;27;45498;-75
2023/03/15 07:33:23;;;;;;;;;5.50;2.00;;;;;7.57;100.00;101575.38;5052816;28;45649;-78
2023/03/15 07:35:50;;;;;;;;;2.75;2.75;;;;;7.63;100.00;101577.31;5065902;28;45450;-76
2023/03/15 07:38:15;;;;;;;;;4.00;3.00;;;;;7.68;100.00;101586.25;5058242;28;45450;-76
2023/03/15 07:40:41;;;;;;;;;5.50;3.00;;;;;7.73;100.00;101589.94;5071399;27;45936;-76
2023/03/15 07:43:06;;;;;;;;;3.00;3.00;;;;;7.78;100.00;101583.09;5057399;28;68488;-76
2023/03/15 07:45:32;;;;;;;;;4.00;4.00;;;;;7.83;100.00;101583.28;5076724;27;61941;-77
2023/03/15 07:47:59;;;;;;;;;3.00;3.00;;;;;7.87;100.00;101585.13;5076780;27;45498;-77
2023/03/15 07:50:24;;;;;;;;;3.00;3.00;;;;;7.95;100.00;101595.94;5049374;27;45851;-77
2023/03/15 07:52:50;;;;;;;;;2.50;2.00;;;;;8.02;100.00;101605.81;5071445;28;71452;-77
2023/03/15 07:55:15;;;;;;;;;2.50;2.50;;;;;8.05;100.00;101598.03;5074470;27;45482;-77
2023/03/15 07:57:42;;;;;;;;;4.50;3.00;;;;;8.10;100.00;101596.44;5070815;27;64768;-80
2023/03/15 08:00:10;;;;;;;;;2.50;2.50;;;;;8.14;100.00;101599.19;5046570;27;54774;-78
2023/03/15 08:02:36;;;;;;;;;3.00;2.00;;;;;8.22;100.00;101602.09;5071574;27;45516;-77
2023/03/15 08:05:03;;;;;;;;;12.50;3.50;;;;;8.26;100.00;101608.38;5066794;27;66565;-77
2023/03/15 08:07:29;;;;;;;;;5.00;2.50;;;;;8.28;100.00;101607.56;5068267;27;45561;-77
2023/03/15 08:09:56;;;;;;;;;5.00;2.00;;;;;8.34;100.00;101607.75;5043703;28;45588;-78
2023/03/15 08:12:22;;;;;;;;;4.00;2.00;;;;;8.42;100.00;101612.44;5069996;28;46928;-78
2023/03/15 08:14:47;;;;;;;;;2.75;1.75;;;;;8.50;100.00;101618.81;5069197;28;71328;-78
2023/03/15 08:17:15;;;;;;;;;3.00;3.00;;;;;8.55;100.00;101620.75;5068349;28;45477;-78
2023/03/15 08:19:40;;;;;;;;;2.00;2.00;;;;;8.59;100.00;101619.13;5068572;28;45516;-78
2023/03/15 08:22:05;;;;;;;;;3.00;1.75;;;;;8.61;100.00;101625.31;5070290;27;68164;-79
2023/03/15 08:24:31;;;;;;;;;3.00;3.00;;;;;8.68;100.00;101624.66;5069072;28;45437;-78
2023/03/15 08:26:56;;;;;;;;;7.25;3.00;;;;;8.72;100.00;101631.81;5069451;28;45942;-79
2023/03/15 08:29:21;;;;;;;;;3.00;2.00;;;;;8.79;100.00;101627.63;5064961;27;45608;-79
2023/03/15 08:31:47;;;;;;;;;3.50;2.25;;;;;8.84;100.00;101626.94;5069894;28;70434;-77
2023/03/15 08:34:12;;;;;;;;;2.75;2.50;;;;;8.92;100.00;101641.22;5073861;28;45431;-77
2023/03/15 08:36:37;;;;;;;;;3.25;2.50;;;;;8.98;100.00;101627.34;5072346;28;45486;-76
2023/03/15 08:39:04;;;;;;;;;3.00;3.00;;;;;9.03;100.00;101640.66;5068709;27;60507;-77
2023/03/15 08:41:30;;;;;;;;;4.75;2.75;;;;;9.05;100.00;101631.03;5064225;27;45488;-77
2023/03/15 08:43:55;;;;;;;;;3.50;3.00;;;;;9.06;100.00;101631.13;5072793;28;45548;-76
2023/03/15 08:46:20;;;;;;;;;5.50;3.75;;;;;9.08;100.00;101633.78;5072859;28;63165;-75
2023/03/15 08:48:46;;;;;;;;;5.50;4.00;;;;;9.12;100.00;101643.56;5067520;28;45609;-75
2023/03/15 08:51:12;;;;;;;;;6.00;3.75;;;;;9.16;100.00;101651.63;5073642;27;46540;-75
2023/03/15 08:53:37;;;;;;;;;3.25;2.75;;;;;9.17;100.00;101645.50;5074638;28;45720;-75
2023/03/15 08:56:03;;;;;;;;;2.00;0.25;;;;;9.19;100.00;101648.16;5072927;28;47232;-76
2023/03/15 08:58:29;;;;;;;;;1.75;1.75;;;;;9.28;100.00;101650.19;5070669;27;45525;-75
2023/03/15 09:00:54;;;;;;;;;0.25;0.25;;;;;9.39;100.00;101644.38;5065842;28;45856;-75
2023/03/15 09:03:21;;;;;;;;;1.25;1.00;;;;;9.57;100.00;101657.19;5072407;28;45233;-74
2023/03/15 09:05:47;;;;;;;;;2.00;2.00;;;;;9.69;100.00;101653.97;5066441;28;45571;-76
2023/03/15 09:08:13;;;;;;;;;2.25;1.00;;;;;9.77;100.00;101659.50;5044964;28;45427;-76
2023/03/15 09:10:38;;;;;;;;;3.00;1.25;;;;;9.83;100.00;101663.19;5067605;28;47070;-75
2023/03/15 09:13:03;;;;;;;;;2.50;1.25;;;;;9.83;100.00;101668.44;5051309;28;47218;-76
2023/03/15 09:15:29;;;;;;;;;2.50;1.00;;;;;9.85;100.00;101661.47;5073065;28;63115;-76
2023/03/15 09:17:54;;;;;;;;;6.00;3.00;;;;;9.88;100.00;101666.84;5075641;27;46552;-76
2023/03/15 09:20:21;;;;;;;;;2.75;1.00;;;;;9.94;100.00;101663.47;5072568;28;47637;-74
2023/03/15 09:22:55;;;;;;;;;6.00;1.67;;;;;10.00;100.00;101660.09;5069806;28;45978;-76
2023/03/15 09:25:22;;;;;;;;;1.00;0.33;;;;;10.08;100.00;101663.84;5072171;27;45480;-78
2023/03/15 09:27:47;;;;;;;;;1.00;1.00;;;;;10.12;100.00;101647.22;5071387;28;45526;-75
2023/03/15 09:30:13;;;;;;;;;2.00;1.00;;;;;10.15;100.00;101653.47;5073126;27;45998;-76
2023/03/15 09:32:39;;;;;;;;;2.33;2.33;;;;;10.22;100.00;101654.53;5071635;28;45700;-75
2023/03/15 09:35:07;;;;;;;;;3.33;1.00;;;;;10.31;100.00;101657.44;5071738;28;45391;-76
2023/03/15 09:37:33;;;;;;;;;2.00;2.00;;;;;10.38;100.00;101659.38;5073971;28;45426;-75
2023/03/15 09:40:00;;;;;;;;;5.67;1.00;;;;;10.46;100.00;101660.47;5076599;27;46435;-76
2023/03/15 09:42:54;;;;;;;;;2.33;2.00;;;;;10.55;100.00;101657.16;5074689;28;46444;-76
2023/03/15 09:45:23;;;;;;;;;3.33;1.00;;;;;10.62;100.00;101660.84;5053015;28;45438;-76
2023/03/15 09:48:14;;;;;;;;;2.33;1.33;;;;;10.67;100.00;101661.84;5057753;28;45473;-76
2023/03/15 09:50:52;;;;;;;;;4.00;2.00;;;;;10.69;100.00;101661.00;5072246;27;47410;-75
2023/03/15 09:53:30;;;;;;;;;1.00;0.00;;;;;10.76;100.00;101656.78;5074696;28;45555;-76
2023/03/15 09:55:56;;;;;;;;;4.00;1.00;;;;;10.82;100.00;101656.03;5052000;28;45510;-76
2023/03/15 09:58:31;;;;;;;;;2.00;2.00;;;;;10.84;100.00;101655.19;5074327;27;45394;-78
2023/03/15 10:01:04;;;;;;;;;1.00;1.00;;;;;10.87;100.00;101652.66;5054663;28;46603;-76
2023/03/15 10:03:51;;;;;;;;;2.00;1.00;;;;;10.88;100.00;101657.06;5054582;28;45481;-75
2023/03/15 10:06:29;;;;;;;;;2.33;1.00;;;;;10.90;100.00;101657.09;5069896;27;45502;-77
2023/03/15 10:08:59;;;;;;;;;1.00;1.00;;;;;10.89;100.00;101656.19;5072156;27;45603;-76
2023/03/15 10:11:39;;;;;;;;;3.00;1.00;;;;;10.88;100.00;101651.78;5073889;28;45672;-77
2023/03/15 10:14:22;;;;;;;;;0.00;0.00;;;;;10.88;100.00;101650.88;5055176;28;45580;-75
2023/03/15 10:16:48;;;;;;;;;1.67;1.00;;;;;10.89;100.00;101657.94;5063393;27;45697;-76
2023/03/15 10:19:39;;;;;;;;;2.00;1.00;;;;;10.89;100.00;101643.00;5051245;28;45510;-76
2023/03/15 10:22:13;;;;;;;;;3.67;1.00;;;;;10.91;100.00;101643.91;5069563;28;47387;-77
2023/03/15 10:24:45;;;;;;;;;1.00;1.00;;;;;10.94;100.00;101654.56;5067180;28;45545;-77
2023/03/15 10:27:25;;;;;;;;;0.67;0.67;;;;;10.96;100.00;101649.28;5067171;28;45580;-76
2023/03/15 10:29:52;;;;;;;;;1.00;1.00;;;;;10.98;100.00;101648.50;5043158;28;45348;-76
2023/03/15 10:32:21;;;;;;;;;1.33;1.00;;;;;11.02;100.00;101649.44;5050935;28;46457;-76
2023/03/15 10:34:51;;;;;;;;;1.00;1.00;;;;;11.06;100.00;101646.00;5052738;28;45720;-77
2023/03/15 10:37:18;;;;;;;;;0.33;0.33;;;;;11.15;100.00;101637.38;5076376;28;45489;-77
2023/03/15 10:39:47;;;;;;;;;3.33;1.00;;;;;11.20;100.00;101641.03;5074556;28;45395;-76
2023/03/15 10:42:30;;;;;;;;;0.00;0.00;;;;;11.25;100.00;101624.41;5051852;28;47739;-76
2023/03/15 10:44:56;;;;;;;;;4.00;1.00;;;;;11.34;100.00;101625.44;5074838;28;45415;-76
2023/03/15 10:47:23;;;;;;;;;0.33;0.33;;;;;11.40;100.00;101629.13;5069552;28;45169;-77
2023/03/15 10:49:48;;;;;;;;;1.67;0.00;;;;;11.46;100.00;101631.00;5072492;27;45739;-75
2023/03/15 10:52:37;;;;;;;;;4.33;0.67;;;;;11.51;100.00;101627.59;5077355;27;46938;-75
2023/03/15 10:55:16;;;;;;;;;2.33;0.00;;;;;11.54;100.00;101624.97;5073511;27;45477;-75
2023/03/15 10:57:52;;;;;;;;;2.00;0.33;;;;;11.58;100.00;101625.06;5053728;28;45486;-74
2023/03/15 11:00:30;;;;;;;;;5.33;0.00;;;;;11.68;100.00;101627.03;5073866;28;45479;-74
2023/03/15 11:03:00;;;;;;;;;0.67;0.67;;;;;11.81;100.00;101629.00;5071111;27;46537;-75
2023/03/15 11:05:30;;;;;;;;;1.33;0.00;;;;;11.94;100.00;101628.44;5071005;27;45545;-77
2023/03/15 11:07:59;;;;;;;;;1.00;1.00;;;;;12.07;100.00;101622.47;5074000;27;45464;-79
2023/03/15 11:10:27;;;;;;;;;3.00;0.00;;;;;12.22;100.00;101634.19;5073450;28;45370;-78
2023/03/15 11:13:28;;;;;;;;;1.00;1.00;;;;;12.30;100.00;101616.66;5072708;28;46433;-82
2023/03/15 11:16:03;;;;;;;;;0.00;0.00;;;;;12.36;100.00;101627.41;5055876;28;45250;-83
2023/03/15 11:18:54;;;;;;;;;0.33;0.33;;;;;12.45;100.00;101629.28;5039190;28;45536;-82
2023/03/15 11:21:24;;;;;;;;;2.00;0.00;;;;;12.54;100.00;101619.72;5054699;28;45266;-76
2023/03/15 11:23:50;;;;;;;;;1.00;1.00;;;;;12.69;100.00;101619.06;5065239;28;46760;-83
2023/03/15 11:26:18;;;;;;;;;0.00;0.00;;;;;12.87;100.00;101620.19;5070534;27;45380;-79